Terminal Aerodrome Forecast
Issued by NWS Sterling, VA

Home | Current Version | Previous Version | Text Only | Print | Product List | Glossary On
Versions: 1 2 3 4 5 6 7 8 9 10 11 12 13 14 15 16 17 18 19 20 21
000
FTUS41 KLWX 230800 AAA
TAFBWI
TAF AMD
KBWI 230850Z 2309/2412 09008KT P6SM SCT020 OVC050
     FM231000 09006KT P6SM OVC020
     FM231300 09007KT P6SM OVC015
     FM231600 09007KT P6SM -SHRA OVC020
     FM231800 09007KT P6SM OVC025
     FM232000 08008KT P6SM BKN035
     FM240700 09004KT P6SM BKN050
     FM241100 07005KT P6SM SCT090=

USA.gov is the U.S. government's official web portal to all federal, state and local government web resources and services.